createdAt,value
2022-09-24T00:04:48.923Z,48.87
2022-09-24T00:09:53.896Z,49.67
2022-09-24T00:14:59.209Z,50.30
2022-09-24T00:20:05.378Z,51.57
2022-09-24T00:25:29.671Z,52.00
2022-09-24T00:30:34.717Z,50.93
2022-09-24T00:35:43.113Z,51.00
2022-09-24T00:40:48.837Z,51.00
2022-09-24T00:45:59.697Z,50.23
2022-09-24T00:51:06.461Z,50.57
2022-09-24T00:56:15.699Z,51.50
2022-09-24T01:01:24.568Z,50.63
2022-09-24T01:06:30.587Z,51.45
2022-09-24T01:11:58.327Z,49.67
2022-09-24T01:17:10.505Z,49.37
2022-09-24T01:22:30.387Z,49.28
2022-09-24T01:28:13.559Z,49.43
2022-09-24T01:33:21.792Z,58.58
2022-09-24T01:38:33.717Z,51.85
2022-09-24T01:43:39.229Z,53.27
2022-09-24T01:48:44.573Z,50.53
2022-09-24T01:53:52.557Z,51.53
2022-09-24T01:59:00.758Z,52.80
2022-09-24T02:04:09.518Z,51.90
2022-09-24T02:09:32.557Z,53.40
2022-09-24T02:14:43.880Z,54.40
2022-09-24T02:19:49.927Z,52.97
2022-09-24T02:25:00.510Z,53.60
2022-09-24T02:30:08.874Z,53.13
2022-09-24T02:35:14.319Z,53.03
2022-09-24T02:40:22.749Z,51.77
2022-09-24T02:45:28.068Z,51.17
2022-09-24T02:50:33.180Z,52.30
2022-09-24T02:55:38.087Z,51.50
2022-09-24T03:00:44.120Z,50.43
2022-09-24T03:05:49.149Z,51.23
2022-09-24T03:10:56.368Z,49.90
2022-09-24T03:16:01.671Z,49.60
2022-09-24T03:21:09.878Z,49.70
2022-09-24T03:26:17.474Z,48.97
2022-09-24T03:31:24.712Z,48.93
2022-09-24T03:36:30.198Z,48.30
2022-09-24T03:41:35.598Z,48.60
2022-09-24T03:46:40.887Z,48.37
2022-09-24T03:51:46.952Z,48.17
2022-09-24T03:56:52.210Z,48.47
2022-09-24T04:01:57.747Z,48.50
2022-09-24T04:07:02.672Z,50.03
2022-09-24T04:12:07.915Z,48.52
2022-09-24T04:17:14.377Z,48.23
2022-09-24T04:22:19.549Z,48.05
2022-09-24T04:27:25.070Z,48.60
2022-09-24T04:32:30.301Z,48.27
2022-09-24T04:37:36.093Z,47.50
2022-09-24T04:42:42.150Z,47.77
2022-09-24T04:47:53.898Z,47.43
2022-09-24T04:52:59.424Z,46.93
2022-09-24T04:58:05.381Z,47.43
2022-09-24T05:03:11.688Z,47.40
2022-09-24T05:08:17.212Z,47.00
2022-09-24T05:13:23.238Z,46.48
2022-09-24T05:18:29.536Z,49.00
2022-09-24T05:23:35.106Z,46.97
2022-09-24T05:28:42.491Z,46.87
2022-09-24T05:33:47.664Z,46.85
2022-09-24T05:38:52.899Z,47.00
2022-09-24T05:43:59.699Z,47.60
2022-09-24T05:54:08.716Z,46.57
2022-09-24T05:59:14.781Z,47.30
2022-09-24T06:04:19.954Z,47.47
2022-09-24T06:09:25.018Z,48.10
2022-09-24T06:14:30.938Z,46.60
2022-09-24T06:19:39.473Z,46.97
2022-09-24T06:24:44.471Z,47.27
2022-09-24T06:29:49.627Z,47.70
2022-09-24T06:34:58.889Z,49.70
2022-09-24T06:40:01.498Z,51.08
2022-09-24T06:45:07.202Z,53.27
2022-09-24T06:50:12.504Z,52.90
2022-09-24T06:55:19.029Z,51.27
2022-09-24T07:00:24.951Z,50.92
2022-09-24T07:05:30.789Z,52.37
2022-09-24T07:15:42.169Z,51.30
2022-09-24T07:20:56.679Z,51.95
2022-09-24T07:26:01.986Z,52.63
2022-09-24T07:31:07.020Z,51.77
2022-09-24T07:36:12.403Z,52.40
2022-09-24T07:41:18.658Z,52.27
2022-09-24T07:46:25.407Z,52.63
2022-09-24T07:51:31.549Z,52.25
2022-09-24T07:56:37.209Z,50.50
2022-09-24T08:01:44.499Z,52.50
2022-09-24T08:06:49.785Z,51.83
2022-09-24T08:11:55.466Z,50.93
2022-09-24T08:17:00.280Z,51.93
2022-09-24T08:22:08.597Z,51.73
2022-09-24T08:27:17.292Z,52.00
2022-09-24T08:32:22.280Z,53.20
2022-09-24T08:37:29.259Z,51.63
2022-09-24T08:42:46.728Z,51.03
2022-09-24T08:47:56.347Z,52.03
2022-09-24T08:53:24.136Z,51.33
2022-09-24T08:58:47.829Z,51.37
2022-09-24T09:03:56.205Z,51.57
2022-09-24T09:09:20.372Z,50.90
2022-09-24T09:14:42.154Z,51.27
2022-09-24T09:19:53.634Z,50.87
2022-09-24T09:25:03.863Z,50.97
2022-09-24T09:30:14.004Z,49.07
2022-09-24T09:35:34.903Z,49.23
2022-09-24T09:40:55.433Z,49.47
2022-09-24T09:46:16.245Z,48.67
2022-09-24T09:51:23.501Z,49.10
2022-09-24T09:56:41.256Z,49.23
2022-09-24T10:01:56.696Z,49.00
2022-09-24T10:07:11.605Z,49.43
2022-09-24T10:12:24.882Z,49.10
2022-09-24T10:17:36.680Z,49.30
2022-09-24T10:22:47.834Z,49.25
2022-09-24T10:28:19.153Z,49.70
2022-09-24T10:33:24.594Z,49.20
2022-09-24T10:38:31.916Z,49.33
2022-09-24T10:48:47.423Z,49.03
2022-09-24T10:54:21.100Z,49.67
2022-09-24T10:59:52.877Z,49.10
2022-09-24T11:05:07.168Z,49.07
2022-09-24T11:10:37.076Z,49.27
2022-09-24T11:16:20.050Z,49.43
2022-09-24T11:21:46.380Z,49.83
2022-09-24T11:27:19.335Z,49.33
2022-09-24T11:32:33.659Z,49.53
2022-09-24T11:37:51.227Z,49.58
2022-09-24T11:43:03.315Z,49.23
2022-09-24T11:48:20.500Z,49.45
2022-09-24T11:53:34.861Z,49.50
2022-09-24T11:59:01.211Z,49.43
2022-09-24T12:04:25.344Z,49.07
2022-09-24T12:09:40.051Z,48.95
2022-09-24T12:14:54.515Z,49.38
2022-09-24T12:20:02.869Z,49.35
2022-09-24T12:25:13.527Z,49.20
2022-09-24T12:30:58.163Z,49.53
2022-09-24T12:36:26.474Z,49.43
2022-09-24T12:41:39.985Z,49.67
2022-09-24T12:46:56.516Z,49.50
2022-09-24T12:57:26.475Z,48.98
2022-09-24T13:02:35.399Z,48.93
2022-09-24T13:07:44.395Z,49.47
2022-09-24T13:12:50.346Z,49.73
2022-09-24T13:23:22.506Z,49.10
2022-09-24T13:28:38.467Z,49.60
2022-09-24T13:33:43.951Z,49.40
2022-09-24T13:38:58.129Z,49.50
2022-09-24T13:44:06.995Z,49.17
2022-09-24T13:49:18.743Z,49.45
2022-09-24T13:54:34.554Z,49.70
2022-09-24T13:59:40.243Z,49.13
2022-09-24T14:04:47.843Z,48.80
2022-09-24T14:10:05.167Z,49.07
2022-09-24T14:15:19.650Z,49.48
2022-09-24T14:20:27.222Z,48.87
2022-09-24T14:25:36.243Z,48.87
2022-09-24T14:30:56.560Z,48.63
2022-09-24T14:36:04.710Z,49.13
2022-09-24T14:41:25.079Z,48.80
2022-09-24T14:46:37.602Z,48.93
2022-09-24T14:52:00.800Z,48.83
2022-09-24T14:57:25.773Z,48.70
2022-09-24T15:16:52.223Z,49.67
2022-09-24T15:22:00.538Z,49.00
2022-09-24T15:27:21.102Z,51.73
2022-09-24T15:32:28.705Z,50.80
2022-09-24T15:37:33.541Z,50.77
2022-09-24T15:42:39.693Z,49.50
2022-09-24T15:47:45.177Z,49.27
2022-09-24T15:52:55.282Z,48.90
2022-09-24T15:58:01.917Z,49.93
2022-09-24T16:03:08.322Z,50.07
2022-09-24T16:08:13.769Z,49.50
2022-09-24T16:13:22.238Z,49.63
2022-09-24T16:18:28.149Z,48.90
2022-09-24T16:23:33.951Z,49.20
2022-09-24T16:28:38.780Z,48.93
2022-09-24T16:33:43.742Z,49.27
2022-09-24T16:38:49.124Z,48.50
2022-09-24T16:43:58.600Z,48.40
2022-09-24T16:49:05.854Z,48.73
2022-09-24T16:54:12.316Z,48.97
2022-09-24T16:59:17.990Z,49.18
2022-09-24T17:04:22.852Z,48.23
2022-09-24T17:09:46.849Z,47.60
2022-09-24T17:14:51.897Z,48.30
2022-09-24T17:19:57.149Z,48.87
2022-09-24T17:25:02.898Z,48.53
2022-09-24T17:30:10.099Z,48.33
2022-09-24T17:35:15.951Z,48.37
2022-09-24T17:40:24.097Z,48.63
2022-09-24T17:45:29.925Z,48.73
2022-09-24T17:50:35.260Z,48.77
2022-09-24T17:55:44.028Z,48.57
2022-09-24T18:00:51.608Z,49.50
2022-09-24T18:06:01.635Z,49.37
2022-09-24T18:11:14.193Z,52.03
2022-09-24T18:16:21.454Z,51.17
2022-09-24T18:21:30.155Z,52.13
2022-09-24T18:26:37.421Z,52.83
2022-09-24T18:31:43.262Z,49.00
2022-09-24T18:36:48.558Z,48.97
2022-09-24T18:41:54.974Z,48.87
2022-09-24T18:52:05.325Z,50.80
2022-09-24T18:57:10.724Z,48.33
2022-09-24T19:02:16.327Z,48.73
2022-09-24T19:07:21.791Z,49.30
2022-09-24T19:12:29.180Z,50.58
2022-09-24T19:17:36.739Z,48.23
2022-09-24T19:22:46.259Z,49.80
2022-09-24T19:27:55.318Z,50.23
2022-09-24T19:33:01.470Z,50.60
2022-09-24T19:43:13.697Z,56.23
2022-09-24T19:48:19.683Z,64.07
2022-09-24T19:53:24.937Z,60.40
2022-09-24T19:58:30.424Z,57.20
2022-09-24T20:03:38.694Z,52.50
2022-09-24T20:08:44.599Z,49.57
2022-09-24T20:13:51.114Z,50.13
2022-09-24T20:18:58.174Z,49.60
2022-09-24T20:24:05.451Z,50.58
2022-09-24T20:29:12.323Z,50.73
2022-09-24T20:34:19.178Z,50.47
2022-09-24T20:39:24.145Z,50.43
2022-09-24T20:44:30.627Z,53.87
2022-09-24T20:54:40.182Z,52.23
2022-09-24T20:59:46.095Z,50.20
2022-09-24T21:04:52.419Z,49.90
2022-09-24T21:09:57.230Z,50.13
2022-09-24T21:15:02.480Z,56.13
2022-09-24T21:20:08.452Z,60.40
2022-09-24T21:25:30.351Z,61.33
2022-09-24T21:30:22.029Z,61.63
2022-09-24T21:35:27.428Z,58.23
2022-09-24T21:40:34.564Z,54.30
2022-09-24T21:45:40.211Z,54.80
2022-09-24T21:50:45.722Z,54.30
2022-09-24T21:55:50.799Z,53.73
2022-09-24T22:00:56.996Z,53.77
2022-09-24T22:06:04.627Z,55.05
2022-09-24T22:11:11.947Z,54.67
2022-09-24T22:16:17.750Z,52.77
2022-09-24T22:21:22.907Z,50.10
2022-09-24T22:26:29.632Z,48.63
2022-09-24T22:31:34.972Z,50.38
2022-09-24T22:36:39.939Z,49.70
2022-09-24T22:41:45.191Z,50.67
2022-09-24T22:46:50.246Z,50.77
2022-09-24T22:51:55.093Z,49.67
2022-09-24T22:57:00.786Z,48.07
2022-09-24T23:02:10.784Z,50.10
2022-09-24T23:07:15.656Z,49.25
2022-09-24T23:12:21.166Z,53.80
2022-09-24T23:17:27.357Z,49.43
2022-09-24T23:22:32.919Z,51.07
2022-09-24T23:27:38.075Z,50.80
2022-09-24T23:32:42.933Z,49.70
2022-09-24T23:37:48.472Z,48.00
2022-09-24T23:42:54.725Z,49.75
2022-09-24T23:47:59.613Z,48.63
2022-09-24T23:53:05.081Z,48.33
2022-09-24T23:58:11.201Z,46.87
